ARG1813 SAVY-SAEZ
Flight info
| Callsign | ARG1813 |
|---|---|
| Flight time | 1h 39m |
| Altitude | 35000 |
| Route | LOMUS2G LOMUS DCT SANBU UW18 BCA UW22 VALOS VALOS8U |
| Aircraft | B738/M-SDE2E3FGHIRWXY/LB1 |
Departure
| Time | 2026-05-05 11:48 |
|---|---|
| Airport | El Tehuelche Airport (SAVY) |
Arrival
| Time | 2026-05-05 13:27 |
|---|---|
| Airport | Ezeiza International Airport - Ministro Pistarini (SAEZ) |
| Time | Latitude | Longitude | Altitude | Speed | Heading |
|---|---|---|---|---|---|
| 2026-05-05 11:25 | -42.75572 | -65.10063 | 431 ft | 0 kts | 239° |
| 2026-05-05 11:36 | -42.75564 | -65.10046 | 431 ft | 2 kts | 239° |
| 2026-05-05 11:36 | -42.75557 | -65.10029 | 431 ft | 2 kts | 239° |
| 2026-05-05 11:36 | -42.75549 | -65.10011 | 431 ft | 2 kts | 239° |
| 2026-05-05 11:37 | -42.75545 | -65.10004 | 431 ft | 0 kts | 239° |
| 2026-05-05 11:41 | -42.75550 | -65.10014 | 431 ft | 0 kts | 230° |
| 2026-05-05 11:41 | -42.75558 | -65.10021 | 431 ft | 1 kts | 205° |
| 2026-05-05 11:41 | -42.75568 | -65.10023 | 431 ft | 3 kts | 185° |
| 2026-05-05 11:42 | -42.75596 | -65.10013 | 431 ft | 4 kts | 151° |
| 2026-05-05 11:42 | -42.75622 | -65.09991 | 431 ft | 4 kts | 148° |
| 2026-05-05 11:42 | -42.75633 | -65.09982 | 431 ft | 4 kts | 148° |
| 2026-05-05 11:42 | -42.75644 | -65.09973 | 431 ft | 4 kts | 148° |
| 2026-05-05 11:43 | -42.75677 | -65.09943 | 431 ft | 7 kts | 147° |
| 2026-05-05 11:43 | -42.75721 | -65.09885 | 431 ft | 9 kts | 103° |
| 2026-05-05 11:43 | -42.75700 | -65.09794 | 431 ft | 11 kts | 59° |
| 2026-05-05 11:43 | -42.75656 | -65.09699 | 431 ft | 12 kts | 58° |
| 2026-05-05 11:44 | -42.75607 | -65.09591 | 431 ft | 14 kts | 58° |
| 2026-05-05 11:44 | -42.75552 | -65.09471 | 431 ft | 15 kts | 58° |
| 2026-05-05 11:44 | -42.75497 | -65.09350 | 431 ft | 13 kts | 58° |
| 2026-05-05 11:44 | -42.75446 | -65.09240 | 431 ft | 12 kts | 56° |
| 2026-05-05 11:45 | -42.75407 | -65.09158 | 431 ft | 9 kts | 57° |
| 2026-05-05 11:45 | -42.75376 | -65.09080 | 431 ft | 8 kts | 69° |
| 2026-05-05 11:45 | -42.75363 | -65.09027 | 431 ft | 4 kts | 69° |
| 2026-05-05 11:45 | -42.75353 | -65.08997 | 431 ft | 2 kts | 62° |
| 2026-05-05 11:46 | -42.75343 | -65.08991 | 431 ft | 1 kts | 343° |
| 2026-05-05 11:46 | -42.75340 | -65.08997 | 431 ft | 0 kts | 286° |
| 2026-05-05 11:46 | -42.75340 | -65.09005 | 431 ft | 1 kts | 265° |
| 2026-05-05 11:46 | -42.75341 | -65.09013 | 431 ft | 2 kts | 251° |
| 2026-05-05 11:47 | -42.75351 | -65.09034 | 431 ft | 0 kts | 236° |
| 2026-05-05 11:47 | -42.75362 | -65.09057 | 431 ft | 6 kts | 236° |
| 2026-05-05 11:47 | -42.75508 | -65.09374 | 431 ft | 77 kts | 238° |
| 2026-05-05 11:48 | -42.76501 | -65.11570 | 703 ft | 176 kts | 238° |
| 2026-05-05 11:48 | -42.77099 | -65.12940 | 1729 ft | 164 kts | 237° |
| 2026-05-05 11:48 | -42.77725 | -65.14273 | 2221 ft | 177 kts | 236° |
| 2026-05-05 11:49 | -42.78425 | -65.15752 | 2691 ft | 193 kts | 237° |
| 2026-05-05 11:49 | -42.79150 | -65.17339 | 3191 ft | 209 kts | 238° |
| 2026-05-05 11:49 | -42.79720 | -65.19213 | 3736 ft | 227 kts | 260° |
| 2026-05-05 11:49 | -42.79494 | -65.21358 | 4563 ft | 239 kts | 290° |
| 2026-05-05 11:50 | -42.78476 | -65.23176 | 5371 ft | 252 kts | 313° |
| 2026-05-05 11:50 | -42.77020 | -65.24568 | 6148 ft | 260 kts | 322° |
| 2026-05-05 11:50 | -42.75391 | -65.25673 | 6870 ft | 270 kts | 337° |
| 2026-05-05 11:50 | -42.73516 | -65.26030 | 7613 ft | 281 kts | 360° |
| 2026-05-05 11:51 | -42.71614 | -65.25363 | 8284 ft | 292 kts | 24° |
| 2026-05-05 11:51 | -42.69929 | -65.23741 | 8746 ft | 309 kts | 45° |
| 2026-05-05 11:51 | -42.68697 | -65.21291 | 9298 ft | 317 kts | 69° |
| 2026-05-05 11:51 | -42.67938 | -65.18478 | 9952 ft | 321 kts | 75° |
| 2026-05-05 11:52 | -42.67256 | -65.15524 | 10391 ft | 336 kts | 75° |
| 2026-05-05 11:52 | -42.66321 | -65.12536 | 10730 ft | 356 kts | 59° |
| 2026-05-05 11:52 | -42.64669 | -65.09933 | 10769 ft | 382 kts | 37° |
| 2026-05-05 11:52 | -42.62368 | -65.07991 | 10767 ft | 389 kts | 24° |
| 2026-05-05 11:53 | -42.59906 | -65.06387 | 10756 ft | 393 kts | 21° |
| 2026-05-05 11:53 | -42.57432 | -65.04827 | 10760 ft | 393 kts | 21° |
| 2026-05-05 11:53 | -42.54962 | -65.03266 | 10754 ft | 394 kts | 22° |
| 2026-05-05 11:53 | -42.52504 | -65.01636 | 10759 ft | 394 kts | 23° |
| 2026-05-05 11:54 | -42.50082 | -64.99949 | 10763 ft | 395 kts | 24° |
| 2026-05-05 11:54 | -42.47637 | -64.98235 | 10752 ft | 395 kts | 24° |
| 2026-05-05 11:54 | -42.45171 | -64.96506 | 10757 ft | 395 kts | 25° |
| 2026-05-05 11:54 | -42.42769 | -64.94795 | 10747 ft | 395 kts | 24° |
| 2026-05-05 11:55 | -42.40323 | -64.93071 | 10757 ft | 395 kts | 24° |
| 2026-05-05 11:55 | -42.37888 | -64.91302 | 10754 ft | 395 kts | 25° |
| 2026-05-05 11:55 | -42.35484 | -64.89559 | 10757 ft | 395 kts | 24° |
| 2026-05-05 11:55 | -42.33042 | -64.87842 | 10753 ft | 395 kts | 24° |
| 2026-05-05 11:56 | -42.30611 | -64.86152 | 10766 ft | 397 kts | 23° |
| 2026-05-05 11:56 | -42.28098 | -64.84425 | 11344 ft | 404 kts | 23° |
| 2026-05-05 11:56 | -42.25631 | -64.82732 | 12219 ft | 403 kts | 24° |
| 2026-05-05 11:56 | -42.23125 | -64.81000 | 12883 ft | 408 kts | 24° |
| 2026-05-05 11:57 | -42.20586 | -64.79253 | 13534 ft | 413 kts | 24° |
| 2026-05-05 11:57 | -42.18001 | -64.77487 | 14213 ft | 417 kts | 23° |
| 2026-05-05 11:57 | -42.15409 | -64.75714 | 14865 ft | 422 kts | 23° |
| 2026-05-05 11:57 | -42.12783 | -64.73917 | 15504 ft | 427 kts | 23° |
| 2026-05-05 11:58 | -42.10148 | -64.72112 | 16125 ft | 432 kts | 22° |
| 2026-05-05 11:58 | -42.07461 | -64.70275 | 16757 ft | 436 kts | 22° |
| 2026-05-05 11:58 | -42.04744 | -64.68420 | 17382 ft | 440 kts | 22° |
| 2026-05-05 11:58 | -42.02017 | -64.66560 | 17996 ft | 444 kts | 22° |
| 2026-05-05 11:59 | -41.99248 | -64.64672 | 18602 ft | 448 kts | 22° |
| 2026-05-05 11:59 | -41.96463 | -64.62775 | 19193 ft | 452 kts | 22° |
| 2026-05-05 11:59 | -41.93667 | -64.60873 | 19769 ft | 455 kts | 22° |
| 2026-05-05 11:59 | -41.90822 | -64.58940 | 20343 ft | 459 kts | 22° |
| 2026-05-05 12:00 | -41.87969 | -64.57005 | 20894 ft | 462 kts | 22° |
| 2026-05-05 12:00 | -41.85107 | -64.55064 | 21403 ft | 466 kts | 22° |
| 2026-05-05 12:00 | -41.82198 | -64.53093 | 21901 ft | 470 kts | 22° |
| 2026-05-05 12:00 | -41.79289 | -64.51123 | 22385 ft | 474 kts | 22° |
| 2026-05-05 12:01 | -41.76340 | -64.49128 | 22861 ft | 479 kts | 22° |
| 2026-05-05 12:01 | -41.73343 | -64.47101 | 23337 ft | 482 kts | 22° |
| 2026-05-05 12:01 | -41.70373 | -64.45094 | 23795 ft | 486 kts | 22° |
| 2026-05-05 12:01 | -41.67321 | -64.43036 | 24255 ft | 489 kts | 22° |
| 2026-05-05 12:02 | -41.64292 | -64.40995 | 24701 ft | 493 kts | 22° |
| 2026-05-05 12:02 | -41.61205 | -64.38918 | 25138 ft | 496 kts | 22° |
| 2026-05-05 12:02 | -41.58142 | -64.36859 | 25560 ft | 500 kts | 22° |
| 2026-05-05 12:02 | -41.55039 | -64.34776 | 25977 ft | 504 kts | 21° |
| 2026-05-05 12:03 | -41.51881 | -64.32658 | 26391 ft | 507 kts | 21° |
| 2026-05-05 12:03 | -41.48745 | -64.30555 | 26796 ft | 510 kts | 21° |
| 2026-05-05 12:03 | -41.45564 | -64.28426 | 27197 ft | 513 kts | 21° |
| 2026-05-05 12:03 | -41.42377 | -64.26296 | 27590 ft | 516 kts | 21° |
| 2026-05-05 12:04 | -41.39149 | -64.24139 | 27979 ft | 519 kts | 21° |
| 2026-05-05 12:04 | -41.35951 | -64.22006 | 28354 ft | 522 kts | 21° |
| 2026-05-05 12:04 | -41.32701 | -64.19839 | 28866 ft | 520 kts | 21° |
| 2026-05-05 12:04 | -41.29482 | -64.17692 | 29349 ft | 519 kts | 21° |
| 2026-05-05 12:05 | -41.26257 | -64.15544 | 29840 ft | 518 kts | 21° |
| 2026-05-05 12:05 | -41.23078 | -64.13430 | 30355 ft | 517 kts | 21° |
| 2026-05-05 12:05 | -41.19842 | -64.11282 | 30873 ft | 516 kts | 21° |
| 2026-05-05 12:05 | -41.16640 | -64.09059 | 31371 ft | 517 kts | 24° |
| 2026-05-05 12:06 | -41.13597 | -64.06514 | 31858 ft | 521 kts | 30° |
| 2026-05-05 12:06 | -41.10726 | -64.03589 | 32273 ft | 523 kts | 37° |
| 2026-05-05 12:06 | -41.08058 | -64.00308 | 32674 ft | 525 kts | 43° |
| 2026-05-05 12:06 | -41.05606 | -63.96679 | 33069 ft | 526 kts | 49° |
| 2026-05-05 12:07 | -41.03424 | -63.92778 | 33455 ft | 526 kts | 55° |
| 2026-05-05 12:07 | -41.01479 | -63.88707 | 33837 ft | 525 kts | 58° |
| 2026-05-05 12:07 | -40.99639 | -63.84589 | 34208 ft | 524 kts | 59° |
| 2026-05-05 12:07 | -40.97812 | -63.80437 | 34574 ft | 522 kts | 60° |
| 2026-05-05 12:08 | -40.96066 | -63.76255 | 34931 ft | 521 kts | 61° |
| 2026-05-05 12:08 | -40.94272 | -63.72165 | 35214 ft | 520 kts | 57° |
| 2026-05-05 12:08 | -40.92209 | -63.68242 | 35490 ft | 517 kts | 50° |
| 2026-05-05 12:08 | -40.89890 | -63.64623 | 35755 ft | 515 kts | 44° |
| 2026-05-05 12:09 | -40.87340 | -63.61342 | 36003 ft | 511 kts | 37° |
| 2026-05-05 12:09 | -40.84578 | -63.58417 | 36200 ft | 507 kts | 31° |
| 2026-05-05 12:09 | -40.81675 | -63.55907 | 36375 ft | 502 kts | 25° |
| 2026-05-05 12:09 | -40.78571 | -63.53765 | 36542 ft | 497 kts | 18° |
| 2026-05-05 12:10 | -40.75413 | -63.52031 | 36705 ft | 493 kts | 15° |
| 2026-05-05 12:10 | -40.72237 | -63.50455 | 36792 ft | 494 kts | 14° |
| 2026-05-05 12:10 | -40.65829 | -63.47051 | 36800 ft | 495 kts | 18° |
| 2026-05-05 12:11 | -40.59600 | -63.43169 | 36807 ft | 496 kts | 21° |
| 2026-05-05 12:11 | -40.53480 | -63.38973 | 36807 ft | 498 kts | 23° |
| 2026-05-05 12:12 | -40.47395 | -63.34646 | 36808 ft | 498 kts | 22° |
| 2026-05-05 12:12 | -40.41324 | -63.30296 | 36809 ft | 497 kts | 23° |
| 2026-05-05 12:13 | -40.35251 | -63.25956 | 36809 ft | 498 kts | 22° |
| 2026-05-05 12:13 | -40.29176 | -63.21635 | 36810 ft | 498 kts | 22° |
| 2026-05-05 12:14 | -40.23088 | -63.17322 | 36811 ft | 498 kts | 22° |
| 2026-05-05 12:14 | -40.16987 | -63.13013 | 36813 ft | 498 kts | 22° |
| 2026-05-05 12:15 | -40.10930 | -63.08745 | 36814 ft | 498 kts | 22° |
| 2026-05-05 12:15 | -40.04826 | -63.04451 | 36816 ft | 497 kts | 22° |
| 2026-05-05 12:16 | -39.98779 | -63.00206 | 36819 ft | 497 kts | 22° |
| 2026-05-05 12:16 | -39.92657 | -62.95918 | 36822 ft | 497 kts | 22° |
| 2026-05-05 12:17 | -39.86551 | -62.91650 | 36829 ft | 497 kts | 22° |
| 2026-05-05 12:17 | -39.80479 | -62.87416 | 36833 ft | 497 kts | 22° |
| 2026-05-05 12:18 | -39.74371 | -62.83164 | 36835 ft | 497 kts | 22° |
| 2026-05-05 12:18 | -39.68297 | -62.78944 | 36839 ft | 497 kts | 22° |
| 2026-05-05 12:19 | -39.62204 | -62.74720 | 36843 ft | 497 kts | 22° |
| 2026-05-05 12:19 | -39.56135 | -62.70521 | 36847 ft | 497 kts | 22° |
| 2026-05-05 12:20 | -39.50008 | -62.66290 | 36852 ft | 496 kts | 22° |
| 2026-05-05 12:20 | -39.43890 | -62.62203 | 36856 ft | 495 kts | 21° |
| 2026-05-05 12:21 | -39.37739 | -62.58213 | 36861 ft | 495 kts | 21° |
| 2026-05-05 12:21 | -39.31557 | -62.54224 | 36865 ft | 495 kts | 21° |
| 2026-05-05 12:22 | -39.25372 | -62.50228 | 36869 ft | 495 kts | 21° |
| 2026-05-05 12:22 | -39.19221 | -62.46249 | 36872 ft | 495 kts | 21° |
| 2026-05-05 12:23 | -39.13043 | -62.42252 | 36876 ft | 495 kts | 21° |
| 2026-05-05 12:23 | -39.06917 | -62.38292 | 36879 ft | 495 kts | 21° |
| 2026-05-05 12:24 | -39.00778 | -62.34335 | 36880 ft | 494 kts | 20° |
| 2026-05-05 12:24 | -38.94607 | -62.30362 | 36882 ft | 494 kts | 20° |
| 2026-05-05 12:25 | -38.88452 | -62.26407 | 36883 ft | 494 kts | 20° |
| 2026-05-05 12:25 | -38.82325 | -62.22477 | 36884 ft | 495 kts | 20° |
| 2026-05-05 12:26 | -38.76184 | -62.18547 | 36884 ft | 495 kts | 20° |
| 2026-05-05 12:26 | -38.70120 | -62.14250 | 36885 ft | 500 kts | 27° |
| 2026-05-05 12:27 | -38.64344 | -62.09251 | 36887 ft | 502 kts | 31° |
| 2026-05-05 12:27 | -38.58652 | -62.03994 | 36889 ft | 501 kts | 31° |
| 2026-05-05 12:28 | -38.53023 | -61.98776 | 36890 ft | 501 kts | 31° |
| 2026-05-05 12:28 | -38.47415 | -61.93632 | 36890 ft | 501 kts | 31° |
| 2026-05-05 12:29 | -38.41684 | -61.88429 | 36887 ft | 500 kts | 31° |
| 2026-05-05 12:29 | -38.36020 | -61.83320 | 36887 ft | 499 kts | 30° |
| 2026-05-05 12:30 | -38.30340 | -61.78217 | 36892 ft | 498 kts | 30° |
| 2026-05-05 12:30 | -38.24655 | -61.73122 | 36893 ft | 498 kts | 30° |
| 2026-05-05 12:31 | -38.18994 | -61.68059 | 36896 ft | 498 kts | 30° |
| 2026-05-05 12:31 | -38.13305 | -61.62980 | 36898 ft | 498 kts | 30° |
| 2026-05-05 12:32 | -38.07662 | -61.57950 | 36898 ft | 498 kts | 30° |
| 2026-05-05 12:32 | -38.02002 | -61.52914 | 36896 ft | 498 kts | 30° |
| 2026-05-05 12:33 | -37.96296 | -61.47848 | 36893 ft | 498 kts | 30° |
| 2026-05-05 12:33 | -37.90601 | -61.42803 | 36889 ft | 498 kts | 30° |
| 2026-05-05 12:34 | -37.84932 | -61.37792 | 36881 ft | 498 kts | 30° |
| 2026-05-05 12:34 | -37.79250 | -61.32777 | 36871 ft | 497 kts | 30° |
| 2026-05-05 12:35 | -37.73603 | -61.27803 | 36863 ft | 497 kts | 30° |
| 2026-05-05 12:35 | -37.67894 | -61.22784 | 36861 ft | 496 kts | 30° |
| 2026-05-05 12:36 | -37.62209 | -61.17794 | 36858 ft | 495 kts | 30° |
| 2026-05-05 12:36 | -37.56555 | -61.12844 | 36855 ft | 494 kts | 30° |
| 2026-05-05 12:37 | -37.50932 | -61.07929 | 36854 ft | 494 kts | 29° |
| 2026-05-05 12:37 | -37.45266 | -61.02985 | 36858 ft | 493 kts | 29° |
| 2026-05-05 12:38 | -37.39645 | -60.98090 | 36860 ft | 493 kts | 29° |
| 2026-05-05 12:38 | -37.34022 | -60.93205 | 36858 ft | 492 kts | 29° |
| 2026-05-05 12:39 | -37.28361 | -60.88295 | 36857 ft | 492 kts | 29° |
| 2026-05-05 12:39 | -37.22776 | -60.83458 | 36856 ft | 491 kts | 29° |
| 2026-05-05 12:40 | -37.17141 | -60.78587 | 36857 ft | 490 kts | 29° |
| 2026-05-05 12:40 | -37.11497 | -60.73718 | 36863 ft | 491 kts | 29° |
| 2026-05-05 12:41 | -37.05883 | -60.68886 | 36866 ft | 491 kts | 29° |
| 2026-05-05 12:41 | -37.00251 | -60.64044 | 36864 ft | 490 kts | 29° |
| 2026-05-05 12:42 | -36.94638 | -60.59227 | 36862 ft | 490 kts | 29° |
| 2026-05-05 12:42 | -36.88998 | -60.54396 | 36860 ft | 489 kts | 29° |
| 2026-05-05 12:43 | -36.83391 | -60.49604 | 36859 ft | 489 kts | 29° |
| 2026-05-05 12:43 | -36.77774 | -60.44812 | 36858 ft | 488 kts | 29° |
| 2026-05-05 12:44 | -36.72156 | -60.40029 | 36857 ft | 488 kts | 29° |
| 2026-05-05 12:44 | -36.66526 | -60.35242 | 36855 ft | 488 kts | 29° |
| 2026-05-05 12:45 | -36.60896 | -60.30461 | 36854 ft | 487 kts | 28° |
| 2026-05-05 12:45 | -36.55294 | -60.25716 | 36853 ft | 488 kts | 28° |
| 2026-05-05 12:46 | -36.49708 | -60.20994 | 36853 ft | 487 kts | 28° |
| 2026-05-05 12:46 | -36.44106 | -60.16283 | 36503 ft | 480 kts | 28° |
| 2026-05-05 12:47 | -36.41363 | -60.13981 | 36063 ft | 479 kts | 28° |
| 2026-05-05 12:47 | -36.38580 | -60.11653 | 35497 ft | 481 kts | 28° |
| 2026-05-05 12:47 | -36.35788 | -60.09323 | 34837 ft | 486 kts | 28° |
| 2026-05-05 12:47 | -36.32986 | -60.06987 | 34307 ft | 486 kts | 28° |
| 2026-05-05 12:48 | -36.30200 | -60.04664 | 33775 ft | 485 kts | 28° |
| 2026-05-05 12:48 | -36.27398 | -60.02326 | 33230 ft | 484 kts | 28° |
| 2026-05-05 12:48 | -36.24605 | -59.99997 | 32706 ft | 482 kts | 28° |
| 2026-05-05 12:48 | -36.21836 | -59.97688 | 32187 ft | 480 kts | 28° |
| 2026-05-05 12:49 | -36.19087 | -59.95396 | 31661 ft | 478 kts | 28° |
| 2026-05-05 12:49 | -36.16330 | -59.93098 | 31117 ft | 475 kts | 28° |
| 2026-05-05 12:49 | -36.13613 | -59.90837 | 30598 ft | 472 kts | 28° |
| 2026-05-05 12:49 | -36.10906 | -59.88588 | 30087 ft | 468 kts | 27° |
| 2026-05-05 12:50 | -36.08227 | -59.86364 | 29598 ft | 465 kts | 27° |
| 2026-05-05 12:50 | -36.05567 | -59.84159 | 29087 ft | 462 kts | 27° |
| 2026-05-05 12:50 | -36.02914 | -59.81962 | 28577 ft | 459 kts | 27° |
| 2026-05-05 12:50 | -36.00268 | -59.79772 | 28068 ft | 456 kts | 27° |
| 2026-05-05 12:51 | -35.97626 | -59.77587 | 27545 ft | 453 kts | 27° |
| 2026-05-05 12:51 | -35.95055 | -59.75462 | 27022 ft | 449 kts | 27° |
| 2026-05-05 12:51 | -35.92476 | -59.73331 | 26515 ft | 445 kts | 27° |
| 2026-05-05 12:51 | -35.89903 | -59.71207 | 26012 ft | 441 kts | 27° |
| 2026-05-05 12:52 | -35.87359 | -59.69110 | 25520 ft | 436 kts | 27° |
| 2026-05-05 12:52 | -35.84872 | -59.67062 | 25025 ft | 432 kts | 27° |
| 2026-05-05 12:52 | -35.82375 | -59.65008 | 24524 ft | 428 kts | 27° |
| 2026-05-05 12:52 | -35.79930 | -59.62998 | 24035 ft | 424 kts | 27° |
| 2026-05-05 12:53 | -35.77467 | -59.60974 | 23549 ft | 420 kts | 28° |
| 2026-05-05 12:53 | -35.75045 | -59.58987 | 23067 ft | 416 kts | 28° |
| 2026-05-05 12:53 | -35.72644 | -59.57017 | 22585 ft | 413 kts | 28° |
| 2026-05-05 12:53 | -35.70277 | -59.55078 | 22107 ft | 410 kts | 28° |
| 2026-05-05 12:54 | -35.65583 | -59.51236 | 21159 ft | 405 kts | 28° |
| 2026-05-05 12:54 | -35.63225 | -59.49308 | 20660 ft | 401 kts | 28° |
| 2026-05-05 12:54 | -35.60964 | -59.47457 | 20206 ft | 389 kts | 28° |
| 2026-05-05 12:55 | -35.58747 | -59.45639 | 19754 ft | 377 kts | 28° |
| 2026-05-05 12:55 | -35.56604 | -59.43884 | 19303 ft | 370 kts | 28° |
| 2026-05-05 12:55 | -35.54430 | -59.42115 | 18855 ft | 378 kts | 28° |
| 2026-05-05 12:55 | -35.52223 | -59.40326 | 18384 ft | 375 kts | 28° |
| 2026-05-05 12:56 | -35.50097 | -59.38589 | 17936 ft | 365 kts | 28° |
| 2026-05-05 12:56 | -35.48001 | -59.36878 | 17501 ft | 365 kts | 28° |
| 2026-05-05 12:56 | -35.45847 | -59.35131 | 17047 ft | 371 kts | 28° |
| 2026-05-05 12:56 | -35.43708 | -59.33447 | 16592 ft | 362 kts | 26° |
| 2026-05-05 12:57 | -35.41611 | -59.31867 | 16159 ft | 353 kts | 25° |
| 2026-05-05 12:57 | -35.39488 | -59.30308 | 15723 ft | 360 kts | 25° |
| 2026-05-05 12:57 | -35.37330 | -59.28733 | 15267 ft | 358 kts | 25° |
| 2026-05-05 12:57 | -35.35238 | -59.27192 | 14831 ft | 348 kts | 25° |
| 2026-05-05 12:58 | -35.33168 | -59.25657 | 14408 ft | 349 kts | 25° |
| 2026-05-05 12:58 | -35.31066 | -59.24103 | 13969 ft | 353 kts | 25° |
| 2026-05-05 12:58 | -35.28997 | -59.22570 | 13531 ft | 345 kts | 25° |
| 2026-05-05 12:58 | -35.26964 | -59.21053 | 13109 ft | 339 kts | 25° |
| 2026-05-05 12:59 | -35.24909 | -59.19527 | 12680 ft | 347 kts | 26° |
| 2026-05-05 12:59 | -35.22857 | -59.18008 | 12241 ft | 342 kts | 26° |
| 2026-05-05 12:59 | -35.20885 | -59.16539 | 11828 ft | 332 kts | 26° |
| 2026-05-05 13:00 | -35.16809 | -59.13767 | 10984 ft | 336 kts | 21° |
| 2026-05-05 13:00 | -35.14745 | -59.12518 | 10563 ft | 326 kts | 20° |
| 2026-05-05 13:01 | -35.08773 | -59.08908 | 9690 ft | 305 kts | 21° |
| 2026-05-05 13:01 | -35.06913 | -59.07757 | 9294 ft | 299 kts | 21° |
| 2026-05-05 13:01 | -35.05032 | -59.06602 | 8966 ft | 304 kts | 21° |
| 2026-05-05 13:01 | -35.03138 | -59.05439 | 8539 ft | 306 kts | 21° |
| 2026-05-05 13:02 | -35.01237 | -59.04265 | 8175 ft | 305 kts | 22° |
| 2026-05-05 13:02 | -34.99353 | -59.03100 | 7809 ft | 304 kts | 22° |
| 2026-05-05 13:02 | -34.97479 | -59.01940 | 7440 ft | 303 kts | 22° |
| 2026-05-05 13:02 | -34.95599 | -59.00781 | 7070 ft | 302 kts | 22° |
| 2026-05-05 13:03 | -34.95512 | -59.00727 | 7053 ft | 302 kts | 22° |
| 2026-05-05 13:17 | -34.94690 | -59.00222 | 6891 ft | 302 kts | 22° |
| 2026-05-05 13:18 | -34.92972 | -58.99161 | 6553 ft | 301 kts | 22° |
| 2026-05-05 13:18 | -34.92189 | -58.98678 | 6399 ft | 301 kts | 22° |
| 2026-05-05 13:19 | -34.91906 | -58.98504 | 6343 ft | 301 kts | 22° |
| 2026-05-05 13:19 | -34.90738 | -58.97789 | 6114 ft | 300 kts | 22° |
| 2026-05-05 13:20 | -34.88837 | -58.96683 | 5741 ft | 298 kts | 20° |
| 2026-05-05 13:20 | -34.86947 | -58.95652 | 5384 ft | 296 kts | 19° |
| 2026-05-05 13:20 | -34.85020 | -58.94624 | 4999 ft | 295 kts | 19° |
| 2026-05-05 13:20 | -34.83160 | -58.93628 | 4875 ft | 284 kts | 19° |
| 2026-05-05 13:21 | -34.81390 | -58.92668 | 4885 ft | 276 kts | 19° |
| 2026-05-05 13:21 | -34.79643 | -58.91719 | 4884 ft | 270 kts | 19° |
| 2026-05-05 13:21 | -34.78003 | -58.90635 | 4879 ft | 262 kts | 31° |
| 2026-05-05 13:21 | -34.76800 | -58.89051 | 4888 ft | 253 kts | 63° |
| 2026-05-05 13:22 | -34.76385 | -58.87068 | 4884 ft | 235 kts | 89° |
| 2026-05-05 13:22 | -34.76501 | -58.85171 | 4876 ft | 217 kts | 104° |
| 2026-05-05 13:22 | -34.76804 | -58.83366 | 4749 ft | 218 kts | 106° |
| 2026-05-05 13:22 | -34.77145 | -58.81521 | 4403 ft | 232 kts | 106° |
| 2026-05-05 13:23 | -34.77503 | -58.79566 | 4057 ft | 242 kts | 105° |
| 2026-05-05 13:23 | -34.77869 | -58.77570 | 3716 ft | 242 kts | 105° |
| 2026-05-05 13:23 | -34.78228 | -58.75576 | 3384 ft | 241 kts | 105° |
| 2026-05-05 13:23 | -34.78588 | -58.73597 | 3059 ft | 240 kts | 105° |
| 2026-05-05 13:24 | -34.78944 | -58.71657 | 2744 ft | 230 kts | 104° |
| 2026-05-05 13:24 | -34.79278 | -58.69810 | 2431 ft | 217 kts | 104° |
| 2026-05-05 13:24 | -34.79598 | -58.68061 | 2159 ft | 206 kts | 104° |
| 2026-05-05 13:24 | -34.79898 | -58.66415 | 1914 ft | 196 kts | 103° |
| 2026-05-05 13:25 | -34.80181 | -58.64843 | 1635 ft | 188 kts | 104° |
| 2026-05-05 13:25 | -34.80461 | -58.63302 | 1411 ft | 187 kts | 104° |
| 2026-05-05 13:25 | -34.80742 | -58.61759 | 1180 ft | 187 kts | 104° |
| 2026-05-05 13:25 | -34.81013 | -58.60245 | 903 ft | 181 kts | 103° |
| 2026-05-05 13:26 | -34.81287 | -58.58764 | 661 ft | 177 kts | 103° |
| 2026-05-05 13:26 | -34.81531 | -58.57334 | 423 ft | 174 kts | 103° |
| 2026-05-05 13:26 | -34.81805 | -58.55907 | 205 ft | 174 kts | 102° |
| 2026-05-05 13:26 | -34.82045 | -58.54563 | 75 ft | 160 kts | 103° |
| 2026-05-05 13:27 | -34.82251 | -58.53420 | 70 ft | 113 kts | 102° |
| 2026-05-05 13:27 | -34.82377 | -58.52700 | 70 ft | 67 kts | 103° |
| 2026-05-05 13:27 | -34.82447 | -58.52315 | 69 ft | 32 kts | 102° |
| 2026-05-05 13:27 | -34.82471 | -58.52174 | 69 ft | 30 kts | 102° |
| 2026-05-05 13:28 | -34.82497 | -58.52034 | 69 ft | 19 kts | 102° |
| 2026-05-05 13:28 | -34.82512 | -58.51897 | 69 ft | 14 kts | 73° |
| 2026-05-05 13:28 | -34.82449 | -58.51818 | 69 ft | 12 kts | 17° |
| 2026-05-05 13:28 | -34.82366 | -58.51794 | 69 ft | 12 kts | 11° |
| 2026-05-05 13:29 | -34.82285 | -58.51787 | 69 ft | 9 kts | 330° |
| 2026-05-05 13:29 | -34.82255 | -58.51870 | 69 ft | 12 kts | 286° |
| 2026-05-05 13:29 | -34.82229 | -58.51983 | 69 ft | 15 kts | 284° |
| 2026-05-05 13:29 | -34.82201 | -58.52121 | 69 ft | 18 kts | 282° |
| 2026-05-05 13:30 | -34.82171 | -58.52300 | 69 ft | 24 kts | 284° |
| 2026-05-05 13:30 | -34.82129 | -58.52517 | 69 ft | 29 kts | 283° |
| 2026-05-05 13:30 | -34.82078 | -58.52775 | 69 ft | 33 kts | 285° |
| 2026-05-05 13:30 | -34.82017 | -58.53073 | 69 ft | 38 kts | 284° |
| 2026-05-05 13:31 | -34.81953 | -58.53379 | 69 ft | 24 kts | 284° |
| 2026-05-05 13:31 | -34.81918 | -58.53551 | 69 ft | 20 kts | 285° |
| 2026-05-05 13:31 | -34.81848 | -58.53661 | 69 ft | 15 kts | 333° |
| 2026-05-05 13:31 | -34.81755 | -58.53717 | 69 ft | 14 kts | 329° |
| 2026-05-05 13:32 | -34.81681 | -58.53796 | 69 ft | 14 kts | 312° |
| 2026-05-05 13:32 | -34.81612 | -58.53878 | 69 ft | 13 kts | 318° |
| 2026-05-05 13:32 | -34.81562 | -58.53933 | 69 ft | 3 kts | 318° |
| 2026-05-05 13:32 | -34.81553 | -58.53943 | 69 ft | 0 kts | 318° |